sensor_id;sensor_type;location;lat;lon;timestamp;temperature;humidity
9915;DHT22;4996;48.746;9.174;2023-02-11T00:01:27;2.40;99.90
9915;DHT22;4996;48.746;9.174;2023-02-11T00:03:53;2.40;99.90
9915;DHT22;4996;48.746;9.174;2023-02-11T00:06:19;2.40;99.90
9915;DHT22;4996;48.746;9.174;2023-02-11T00:08:45;2.30;99.90
9915;DHT22;4996;48.746;9.174;2023-02-11T00:11:15;2.40;99.90
9915;DHT22;4996;48.746;9.174;2023-02-11T00:13:42;2.50;99.90
9915;DHT22;4996;48.746;9.174;2023-02-11T00:16:12;2.30;99.90
9915;DHT22;4996;48.746;9.174;2023-02-11T00:18:38;2.20;99.90
9915;DHT22;4996;48.746;9.174;2023-02-11T00:21:11;2.20;99.90
9915;DHT22;4996;48.746;9.174;2023-02-11T00:23:38;2.10;99.90
9915;DHT22;4996;48.746;9.174;2023-02-11T00:26:09;2.00;99.90
9915;DHT22;4996;48.746;9.174;2023-02-11T00:28:35;2.00;99.90
9915;DHT22;4996;48.746;9.174;2023-02-11T00:31:00;1.90;99.90
9915;DHT22;4996;48.746;9.174;2023-02-11T00:33:26;1.80;99.90
9915;DHT22;4996;48.746;9.174;2023-02-11T00:35:52;2.20;99.90
9915;DHT22;4996;48.746;9.174;2023-02-11T00:38:17;1.90;99.90
9915;DHT22;4996;48.746;9.174;2023-02-11T00:40:43;2.30;99.90
9915;DHT22;4996;48.746;9.174;2023-02-11T00:43:08;2.20;99.90
9915;DHT22;4996;48.746;9.174;2023-02-11T00:45:34;1.80;99.90
9915;DHT22;4996;48.746;9.174;2023-02-11T00:47:59;1.80;99.90
9915;DHT22;4996;48.746;9.174;2023-02-11T00:50:25;2.10;99.90
9915;DHT22;4996;48.746;9.174;2023-02-11T00:52:50;1.70;99.90
9915;DHT22;4996;48.746;9.174;2023-02-11T00:55:16;1.80;99.90
9915;DHT22;4996;48.746;9.174;2023-02-11T00:57:42;1.70;99.90
9915;DHT22;4996;48.746;9.174;2023-02-11T01:00:08;1.90;99.90
9915;DHT22;4996;48.746;9.174;2023-02-11T01:02:34;1.50;99.90
9915;DHT22;4996;48.746;9.174;2023-02-11T01:04:59;1.70;99.90
9915;DHT22;4996;48.746;9.174;2023-02-11T01:07:26;1.50;99.90
9915;DHT22;4996;48.746;9.174;2023-02-11T01:09:52;1.90;99.90
9915;DHT22;4996;48.746;9.174;2023-02-11T01:12:18;1.50;99.90
9915;DHT22;4996;48.746;9.174;2023-02-11T01:14:43;1.50;99.90
9915;DHT22;4996;48.746;9.174;2023-02-11T01:17:09;1.50;99.90
9915;DHT22;4996;48.746;9.174;2023-02-11T01:19:36;1.60;99.90
9915;DHT22;4996;48.746;9.174;2023-02-11T01:22:02;1.90;99.90
9915;DHT22;4996;48.746;9.174;2023-02-11T01:24:27;1.60;99.90
9915;DHT22;4996;48.746;9.174;2023-02-11T01:26:53;1.50;99.90
9915;DHT22;4996;48.746;9.174;2023-02-11T01:29:19;1.50;99.90
9915;DHT22;4996;48.746;9.174;2023-02-11T01:31:44;1.50;99.90
9915;DHT22;4996;48.746;9.174;2023-02-11T01:34:10;1.90;99.90
9915;DHT22;4996;48.746;9.174;2023-02-11T01:36:36;1.50;99.90
9915;DHT22;4996;48.746;9.174;2023-02-11T01:39:01;1.50;99.90
9915;DHT22;4996;48.746;9.174;2023-02-11T01:41:27;1.40;99.90
9915;DHT22;4996;48.746;9.174;2023-02-11T01:43:52;1.40;99.90
9915;DHT22;4996;48.746;9.174;2023-02-11T01:46:36;1.40;99.90
9915;DHT22;4996;48.746;9.174;2023-02-11T01:49:09;1.50;99.90
9915;DHT22;4996;48.746;9.174;2023-02-11T01:51:43;1.90;99.90
9915;DHT22;4996;48.746;9.174;2023-02-11T01:54:14;1.40;99.90
9915;DHT22;4996;48.746;9.174;2023-02-11T01:57:01;1.60;99.90
9915;DHT22;4996;48.746;9.174;2023-02-11T01:59:53;1.40;99.90
9915;DHT22;4996;48.746;9.174;2023-02-11T02:02:25;1.30;99.90
9915;DHT22;4996;48.746;9.174;2023-02-11T02:04:59;1.40;99.90
9915;DHT22;4996;48.746;9.174;2023-02-11T02:07:38;1.40;99.90
9915;DHT22;4996;48.746;9.174;2023-02-11T02:10:10;1.30;99.90
9915;DHT22;4996;48.746;9.174;2023-02-11T02:12:38;1.30;99.90
9915;DHT22;4996;48.746;9.174;2023-02-11T02:15:23;1.30;99.90
9915;DHT22;4996;48.746;9.174;2023-02-11T02:18:02;1.20;99.90
9915;DHT22;4996;48.746;9.174;2023-02-11T02:20:50;1.20;99.90
9915;DHT22;4996;48.746;9.174;2023-02-11T02:26:18;1.20;99.90
9915;DHT22;4996;48.746;9.174;2023-02-11T02:37:29;1.20;99.90
9915;DHT22;4996;48.746;9.174;2023-02-11T02:39:58;1.20;99.90
9915;DHT22;4996;48.746;9.174;2023-02-11T02:42:25;1.20;99.90
9915;DHT22;4996;48.746;9.174;2023-02-11T02:44:52;1.30;99.90
9915;DHT22;4996;48.746;9.174;2023-02-11T02:47:19;1.60;99.90
9915;DHT22;4996;48.746;9.174;2023-02-11T02:49:45;1.30;99.90
9915;DHT22;4996;48.746;9.174;2023-02-11T02:52:39;1.30;99.90
9915;DHT22;4996;48.746;9.174;2023-02-11T02:55:08;1.20;99.90
9915;DHT22;4996;48.746;9.174;2023-02-11T03:03:16;1.20;99.90
9915;DHT22;4996;48.746;9.174;2023-02-11T03:10:51;1.30;99.90
9915;DHT22;4996;48.746;9.174;2023-02-11T03:13:19;1.60;99.90
9915;DHT22;4996;48.746;9.174;2023-02-11T03:15:49;1.70;99.90
9915;DHT22;4996;48.746;9.174;2023-02-11T03:18:18;1.30;99.90
9915;DHT22;4996;48.746;9.174;2023-02-11T03:20:49;1.40;99.90
9915;DHT22;4996;48.746;9.174;2023-02-11T03:23:31;1.30;99.90
9915;DHT22;4996;48.746;9.174;2023-02-11T03:26:22;1.30;99.90
9915;DHT22;4996;48.746;9.174;2023-02-11T03:28:59;1.40;99.90
9915;DHT22;4996;48.746;9.174;2023-02-11T03:31:27;1.80;99.90
9915;DHT22;4996;48.746;9.174;2023-02-11T03:34:08;1.40;99.90
9915;DHT22;4996;48.746;9.174;2023-02-11T03:36:41;1.40;99.90
9915;DHT22;4996;48.746;9.174;2023-02-11T03:39:13;1.70;99.90
9915;DHT22;4996;48.746;9.174;2023-02-11T03:41:41;1.50;99.90
9915;DHT22;4996;48.746;9.174;2023-02-11T03:44:08;1.60;99.90
9915;DHT22;4996;48.746;9.174;2023-02-11T03:46:38;1.40;99.90
9915;DHT22;4996;48.746;9.174;2023-02-11T03:49:08;1.30;99.90
9915;DHT22;4996;48.746;9.174;2023-02-11T03:51:35;1.30;99.90
9915;DHT22;4996;48.746;9.174;2023-02-11T03:54:05;1.40;99.90
9915;DHT22;4996;48.746;9.174;2023-02-11T03:56:38;1.30;99.90
9915;DHT22;4996;48.746;9.174;2023-02-11T03:59:06;1.30;99.90
9915;DHT22;4996;48.746;9.174;2023-02-11T04:01:32;1.20;99.90
9915;DHT22;4996;48.746;9.174;2023-02-11T04:03:58;1.30;99.90
9915;DHT22;4996;48.746;9.174;2023-02-11T04:06:23;1.30;99.90
9915;DHT22;4996;48.746;9.174;2023-02-11T04:08:49;1.80;99.90
9915;DHT22;4996;48.746;9.174;2023-02-11T04:11:14;1.40;99.90
9915;DHT22;4996;48.746;9.174;2023-02-11T04:13:40;1.70;99.90
9915;DHT22;4996;48.746;9.174;2023-02-11T04:16:05;1.50;99.90
9915;DHT22;4996;48.746;9.174;2023-02-11T04:18:31;1.40;99.90
9915;DHT22;4996;48.746;9.174;2023-02-11T04:20:56;1.50;99.90
9915;DHT22;4996;48.746;9.174;2023-02-11T04:23:22;1.80;99.90
9915;DHT22;4996;48.746;9.174;2023-02-11T04:25:48;1.50;99.90
9915;DHT22;4996;48.746;9.174;2023-02-11T04:28:14;1.60;99.90
9915;DHT22;4996;48.746;9.174;2023-02-11T04:30:39;1.70;99.90
9915;DHT22;4996;48.746;9.174;2023-02-11T04:33:05;1.90;99.90
9915;DHT22;4996;48.746;9.174;2023-02-11T04:35:30;1.80;99.90
9915;DHT22;4996;48.746;9.174;2023-02-11T04:37:56;2.20;99.90
9915;DHT22;4996;48.746;9.174;2023-02-11T04:40:21;1.90;99.90
9915;DHT22;4996;48.746;9.174;2023-02-11T04:42:47;1.90;99.90
9915;DHT22;4996;48.746;9.174;2023-02-11T04:45:12;2.40;99.90
9915;DHT22;4996;48.746;9.174;2023-02-11T04:47:38;2.40;99.90
9915;DHT22;4996;48.746;9.174;2023-02-11T04:50:04;2.20;99.90
9915;DHT22;4996;48.746;9.174;2023-02-11T04:52:29;2.10;99.90
9915;DHT22;4996;48.746;9.174;2023-02-11T04:54:55;2.10;99.90
9915;DHT22;4996;48.746;9.174;2023-02-11T04:57:20;2.10;99.90
9915;DHT22;4996;48.746;9.174;2023-02-11T04:59:46;2.20;99.90
9915;DHT22;4996;48.746;9.174;2023-02-11T05:02:12;2.10;99.90
9915;DHT22;4996;48.746;9.174;2023-02-11T05:04:37;2.30;99.90
9915;DHT22;4996;48.746;9.174;2023-02-11T05:07:03;2.00;99.90
9915;DHT22;4996;48.746;9.174;2023-02-11T05:09:28;1.90;99.90
9915;DHT22;4996;48.746;9.174;2023-02-11T05:11:54;1.90;99.90
9915;DHT22;4996;48.746;9.174;2023-02-11T05:14:19;1.90;99.90
9915;DHT22;4996;48.746;9.174;2023-02-11T05:16:45;2.00;99.90
9915;DHT22;4996;48.746;9.174;2023-02-11T05:19:11;1.90;99.90
9915;DHT22;4996;48.746;9.174;2023-02-11T05:21:36;1.90;99.90
9915;DHT22;4996;48.746;9.174;2023-02-11T05:24:02;2.20;99.90
9915;DHT22;4996;48.746;9.174;2023-02-11T05:26:27;1.80;99.90
9915;DHT22;4996;48.746;9.174;2023-02-11T05:28:53;1.60;99.90
9915;DHT22;4996;48.746;9.174;2023-02-11T05:31:18;1.50;99.90
9915;DHT22;4996;48.746;9.174;2023-02-11T05:33:44;1.90;99.90
9915;DHT22;4996;48.746;9.174;2023-02-11T05:36:11;1.60;99.90
9915;DHT22;4996;48.746;9.174;2023-02-11T05:38:38;1.80;99.90
9915;DHT22;4996;48.746;9.174;2023-02-11T05:41:04;1.50;99.90
9915;DHT22;4996;48.746;9.174;2023-02-11T05:43:30;1.40;99.90
9915;DHT22;4996;48.746;9.174;2023-02-11T05:45:56;1.60;99.90
9915;DHT22;4996;48.746;9.174;2023-02-11T05:48:22;1.30;99.90
9915;DHT22;4996;48.746;9.174;2023-02-11T05:50:47;1.40;99.90
9915;DHT22;4996;48.746;9.174;2023-02-11T05:53:13;1.50;99.90
9915;DHT22;4996;48.746;9.174;2023-02-11T05:55:39;1.80;99.90
9915;DHT22;4996;48.746;9.174;2023-02-11T05:58:05;1.50;99.90
9915;DHT22;4996;48.746;9.174;2023-02-11T06:00:31;1.50;99.90
9915;DHT22;4996;48.746;9.174;2023-02-11T06:02:56;1.40;99.90
9915;DHT22;4996;48.746;9.174;2023-02-11T06:05:22;1.50;99.90
9915;DHT22;4996;48.746;9.174;2023-02-11T06:07:48;1.60;99.90
9915;DHT22;4996;48.746;9.174;2023-02-11T06:10:13;1.60;99.90
9915;DHT22;4996;48.746;9.174;2023-02-11T06:12:39;1.70;99.90
9915;DHT22;4996;48.746;9.174;2023-02-11T06:15:05;1.80;99.90
9915;DHT22;4996;48.746;9.174;2023-02-11T06:17:30;1.80;99.90
9915;DHT22;4996;48.746;9.174;2023-02-11T06:19:58;1.90;99.90
9915;DHT22;4996;48.746;9.174;2023-02-11T06:22:24;1.90;99.90
9915;DHT22;4996;48.746;9.174;2023-02-11T06:24:50;1.90;99.90
9915;DHT22;4996;48.746;9.174;2023-02-11T06:27:16;2.00;99.90
9915;DHT22;4996;48.746;9.174;2023-02-11T06:29:43;1.90;99.90
9915;DHT22;4996;48.746;9.174;2023-02-11T06:32:09;2.00;99.90
9915;DHT22;4996;48.746;9.174;2023-02-11T06:34:34;2.10;99.90
9915;DHT22;4996;48.746;9.174;2023-02-11T06:37:00;2.10;99.90
9915;DHT22;4996;48.746;9.174;2023-02-11T06:39:25;2.20;99.90
9915;DHT22;4996;48.746;9.174;2023-02-11T06:41:51;2.00;99.90
9915;DHT22;4996;48.746;9.174;2023-02-11T06:44:16;2.20;99.90
9915;DHT22;4996;48.746;9.174;2023-02-11T06:46:42;2.20;99.90
9915;DHT22;4996;48.746;9.174;2023-02-11T06:49:07;2.30;99.90
9915;DHT22;4996;48.746;9.174;2023-02-11T06:51:33;2.00;99.90
9915;DHT22;4996;48.746;9.174;2023-02-11T06:53:58;2.50;99.90
9915;DHT22;4996;48.746;9.174;2023-02-11T06:56:25;2.20;99.90
9915;DHT22;4996;48.746;9.174;2023-02-11T06:58:53;2.70;99.90
9915;DHT22;4996;48.746;9.174;2023-02-11T07:01:20;2.40;99.90
9915;DHT22;4996;48.746;9.174;2023-02-11T07:03:45;2.50;99.90
9915;DHT22;4996;48.746;9.174;2023-02-11T07:06:14;2.50;99.90
9915;DHT22;4996;48.746;9.174;2023-02-11T07:08:40;2.60;99.90
9915;DHT22;4996;48.746;9.174;2023-02-11T07:11:20;2.50;99.90
9915;DHT22;4996;48.746;9.174;2023-02-11T07:13:48;2.60;99.90
9915;DHT22;4996;48.746;9.174;2023-02-11T07:16:16;2.60;99.90
9915;DHT22;4996;48.746;9.174;2023-02-11T07:18:42;2.60;99.90
9915;DHT22;4996;48.746;9.174;2023-02-11T07:21:10;2.60;99.90
9915;DHT22;4996;48.746;9.174;2023-02-11T07:23:37;2.60;99.90
9915;DHT22;4996;48.746;9.174;2023-02-11T07:26:05;2.50;99.90
9915;DHT22;4996;48.746;9.174;2023-02-11T07:28:33;2.60;99.90
9915;DHT22;4996;48.746;9.174;2023-02-11T07:30:59;2.70;99.90
9915;DHT22;4996;48.746;9.174;2023-02-11T07:33:24;2.70;99.90
9915;DHT22;4996;48.746;9.174;2023-02-11T07:35:50;2.70;99.90
9915;DHT22;4996;48.746;9.174;2023-02-11T07:38:15;2.60;99.90
9915;DHT22;4996;48.746;9.174;2023-02-11T07:40:41;2.80;99.90
9915;DHT22;4996;48.746;9.174;2023-02-11T07:43:06;2.80;99.90
9915;DHT22;4996;48.746;9.174;2023-02-11T07:45:32;2.90;99.90
9915;DHT22;4996;48.746;9.174;2023-02-11T07:47:57;3.00;99.90
9915;DHT22;4996;48.746;9.174;2023-02-11T07:50:23;3.00;99.90
9915;DHT22;4996;48.746;9.174;2023-02-11T07:52:48;3.00;99.90
9915;DHT22;4996;48.746;9.174;2023-02-11T07:55:14;3.10;99.90
9915;DHT22;4996;48.746;9.174;2023-02-11T07:57:39;3.20;99.90
9915;DHT22;4996;48.746;9.174;2023-02-11T08:00:05;3.20;99.90
9915;DHT22;4996;48.746;9.174;2023-02-11T08:02:31;3.30;99.90
9915;DHT22;4996;48.746;9.174;2023-02-11T08:04:56;3.30;99.90
9915;DHT22;4996;48.746;9.174;2023-02-11T08:07:22;3.20;99.90
9915;DHT22;4996;48.746;9.174;2023-02-11T08:09:47;3.40;99.90
9915;DHT22;4996;48.746;9.174;2023-02-11T08:12:13;3.50;99.90
9915;DHT22;4996;48.746;9.174;2023-02-11T08:14:38;3.60;99.90
9915;DHT22;4996;48.746;9.174;2023-02-11T08:17:04;3.50;99.90
9915;DHT22;4996;48.746;9.174;2023-02-11T08:19:30;3.50;99.90
9915;DHT22;4996;48.746;9.174;2023-02-11T08:21:55;3.60;99.90
9915;DHT22;4996;48.746;9.174;2023-02-11T08:24:21;3.60;99.90
9915;DHT22;4996;48.746;9.174;2023-02-11T08:26:47;3.70;99.90
9915;DHT22;4996;48.746;9.174;2023-02-11T08:29:14;3.90;99.90
9915;DHT22;4996;48.746;9.174;2023-02-11T08:31:44;4.00;99.90
9915;DHT22;4996;48.746;9.174;2023-02-11T08:34:11;3.90;99.90
9915;DHT22;4996;48.746;9.174;2023-02-11T08:36:40;4.00;99.90
9915;DHT22;4996;48.746;9.174;2023-02-11T08:39:13;4.10;99.90
9915;DHT22;4996;48.746;9.174;2023-02-11T08:41:39;4.20;99.90
9915;DHT22;4996;48.746;9.174;2023-02-11T08:44:05;4.30;99.90
9915;DHT22;4996;48.746;9.174;2023-02-11T08:46:30;4.50;99.90
9915;DHT22;4996;48.746;9.174;2023-02-11T08:48:56;4.60;99.90
9915;DHT22;4996;48.746;9.174;2023-02-11T08:51:24;4.60;99.90
9915;DHT22;4996;48.746;9.174;2023-02-11T08:53:52;4.90;99.90
9915;DHT22;4996;48.746;9.174;2023-02-11T08:56:19;4.90;99.90
9915;DHT22;4996;48.746;9.174;2023-02-11T08:58:45;5.00;99.90
9915;DHT22;4996;48.746;9.174;2023-02-11T09:01:13;5.10;99.90
9915;DHT22;4996;48.746;9.174;2023-02-11T09:03:38;5.30;99.90
9915;DHT22;4996;48.746;9.174;2023-02-11T09:06:05;5.60;99.90
9915;DHT22;4996;48.746;9.174;2023-02-11T09:11:00;5.60;99.90
9915;DHT22;4996;48.746;9.174;2023-02-11T09:13:25;5.70;99.90
9915;DHT22;4996;48.746;9.174;2023-02-11T09:15:51;6.00;99.90
9915;DHT22;4996;48.746;9.174;2023-02-11T09:18:17;6.10;99.90
9915;DHT22;4996;48.746;9.174;2023-02-11T09:20:42;6.30;99.90
9915;DHT22;4996;48.746;9.174;2023-02-11T09:23:09;6.50;99.90
9915;DHT22;4996;48.746;9.174;2023-02-11T09:25:34;6.60;99.90
9915;DHT22;4996;48.746;9.174;2023-02-11T09:28:02;6.70;99.90
9915;DHT22;4996;48.746;9.174;2023-02-11T09:30:28;6.90;99.90
9915;DHT22;4996;48.746;9.174;2023-02-11T09:32:53;7.10;99.90
9915;DHT22;4996;48.746;9.174;2023-02-11T09:35:19;7.20;99.90
9915;DHT22;4996;48.746;9.174;2023-02-11T09:37:44;7.20;99.90
9915;DHT22;4996;48.746;9.174;2023-02-11T09:40:11;7.30;99.90
9915;DHT22;4996;48.746;9.174;2023-02-11T09:42:44;7.30;99.90
9915;DHT22;4996;48.746;9.174;2023-02-11T09:45:25;7.60;99.90
9915;DHT22;4996;48.746;9.174;2023-02-11T09:50:53;7.80;99.90
9915;DHT22;4996;48.746;9.174;2023-02-11T09:53:28;7.80;99.90
9915;DHT22;4996;48.746;9.174;2023-02-11T09:55:57;7.80;99.90
9915;DHT22;4996;48.746;9.174;2023-02-11T09:58:37;7.70;99.90
9915;DHT22;4996;48.746;9.174;2023-02-11T10:01:15;7.80;99.90
9915;DHT22;4996;48.746;9.174;2023-02-11T10:04:03;8.10;99.90
9915;DHT22;4996;48.746;9.174;2023-02-11T10:06:46;8.30;99.90
9915;DHT22;4996;48.746;9.174;2023-02-11T10:09:46;8.60;99.90
9915;DHT22;4996;48.746;9.174;2023-02-11T10:24:02;9.10;99.90
9915;DHT22;4996;48.746;9.174;2023-02-11T10:26:31;9.00;99.90
9915;DHT22;4996;48.746;9.174;2023-02-11T10:29:01;9.20;99.90
9915;DHT22;4996;48.746;9.174;2023-02-11T10:31:41;9.40;99.90
9915;DHT22;4996;48.746;9.174;2023-02-11T10:34:12;9.50;99.90
9915;DHT22;4996;48.746;9.174;2023-02-11T10:36:41;9.90;99.90
9915;DHT22;4996;48.746;9.174;2023-02-11T10:41:47;9.90;99.90
9915;DHT22;4996;48.746;9.174;2023-02-11T11:01:06;12.30;95.50
9915;DHT22;4996;48.746;9.174;2023-02-11T11:03:37;12.30;94.80
9915;DHT22;4996;48.746;9.174;2023-02-11T11:06:07;13.20;94.00
9915;DHT22;4996;48.746;9.174;2023-02-11T11:08:37;13.90;91.90
9915;DHT22;4996;48.746;9.174;2023-02-11T11:11:06;14.50;90.50
9915;DHT22;4996;48.746;9.174;2023-02-11T11:13:38;15.30;89.20
9915;DHT22;4996;48.746;9.174;2023-02-11T11:18:50;16.60;78.70
9915;DHT22;4996;48.746;9.174;2023-02-11T11:21:22;16.70;76.80
9915;DHT22;4996;48.746;9.174;2023-02-11T11:23:59;17.30;75.10
9915;DHT22;4996;48.746;9.174;2023-02-11T11:26:37;17.60;71.50
9915;DHT22;4996;48.746;9.174;2023-02-11T11:29:14;17.70;71.20
9915;DHT22;4996;48.746;9.174;2023-02-11T11:31:55;18.80;68.70
9915;DHT22;4996;48.746;9.174;2023-02-11T11:34:27;19.60;66.10
9915;DHT22;4996;48.746;9.174;2023-02-11T11:36:55;19.60;64.70
9915;DHT22;4996;48.746;9.174;2023-02-11T11:39:28;20.50;62.50
9915;DHT22;4996;48.746;9.174;2023-02-11T11:44:31;20.60;59.80
9915;DHT22;4996;48.746;9.174;2023-02-11T11:52:46;21.00;57.30
9915;DHT22;4996;48.746;9.174;2023-02-11T11:55:25;19.90;57.60
9915;DHT22;4996;48.746;9.174;2023-02-11T11:57:51;19.50;57.40
9915;DHT22;4996;48.746;9.174;2023-02-11T12:00:20;19.50;58.10
9915;DHT22;4996;48.746;9.174;2023-02-11T12:03:15;19.90;57.90
9915;DHT22;4996;48.746;9.174;2023-02-11T12:06:06;20.70;57.00
9915;DHT22;4996;48.746;9.174;2023-02-11T12:09:00;20.40;57.10
9915;DHT22;4996;48.746;9.174;2023-02-11T12:11:35;21.00;56.20
9915;DHT22;4996;48.746;9.174;2023-02-11T12:20:04;17.40;58.30
9915;DHT22;4996;48.746;9.174;2023-02-11T12:25:11;17.00;59.10
9915;DHT22;4996;48.746;9.174;2023-02-11T12:30:43;16.20;62.30
9915;DHT22;4996;48.746;9.174;2023-02-11T12:36:13;15.50;65.60
9915;DHT22;4996;48.746;9.174;2023-02-11T12:38:49;16.20;63.30
9915;DHT22;4996;48.746;9.174;2023-02-11T12:41:50;16.80;62.70
9915;DHT22;4996;48.746;9.174;2023-02-11T12:44:55;16.60;63.30
9915;DHT22;4996;48.746;9.174;2023-02-11T12:52:55;15.20;64.90
9915;DHT22;4996;48.746;9.174;2023-02-11T12:55:29;14.20;66.30
9915;DHT22;4996;48.746;9.174;2023-02-11T12:57:57;13.80;68.10
9915;DHT22;4996;48.746;9.174;2023-02-11T13:03:17;13.00;70.50
9915;DHT22;4996;48.746;9.174;2023-02-11T13:06:01;12.10;73.10
9915;DHT22;4996;48.746;9.174;2023-02-11T13:08:36;11.80;75.10
9915;DHT22;4996;48.746;9.174;2023-02-11T13:11:22;11.30;76.80
9915;DHT22;4996;48.746;9.174;2023-02-11T13:24:39;11.30;83.20
9915;DHT22;4996;48.746;9.174;2023-02-11T13:37:55;11.10;89.10
9915;DHT22;4996;48.746;9.174;2023-02-11T13:40:23;11.10;90.00
9915;DHT22;4996;48.746;9.174;2023-02-11T13:42:55;11.20;90.20
9915;DHT22;4996;48.746;9.174;2023-02-11T13:48:04;10.60;92.10
9915;DHT22;4996;48.746;9.174;2023-02-11T13:50:36;10.60;92.70
9915;DHT22;4996;48.746;9.174;2023-02-11T13:53:04;10.60;93.30
9915;DHT22;4996;48.746;9.174;2023-02-11T13:55:31;10.60;94.00
9915;DHT22;4996;48.746;9.174;2023-02-11T14:14:26;9.80;99.90
9915;DHT22;4996;48.746;9.174;2023-02-11T14:19:50;10.00;99.90
9915;DHT22;4996;48.746;9.174;2023-02-11T14:22:21;9.90;99.90
9915;DHT22;4996;48.746;9.174;2023-02-11T14:24:58;9.90;99.90
9915;DHT22;4996;48.746;9.174;2023-02-11T14:30:19;9.90;99.90
9915;DHT22;4996;48.746;9.174;2023-02-11T14:39:12;9.80;99.90
9915;DHT22;4996;48.746;9.174;2023-02-11T14:41:44;9.60;99.90
9915;DHT22;4996;48.746;9.174;2023-02-11T14:44:19;9.50;99.90
9915;DHT22;4996;48.746;9.174;2023-02-11T14:46:50;9.50;99.90
9915;DHT22;4996;48.746;9.174;2023-02-11T14:49:30;9.60;99.90
9915;DHT22;4996;48.746;9.174;2023-02-11T14:54:31;9.40;99.90
9915;DHT22;4996;48.746;9.174;2023-02-11T14:57:17;9.50;99.90
9915;DHT22;4996;48.746;9.174;2023-02-11T14:59:58;9.60;99.90
9915;DHT22;4996;48.746;9.174;2023-02-11T15:02:28;9.50;99.90
9915;DHT22;4996;48.746;9.174;2023-02-11T15:04:54;9.50;99.90
9915;DHT22;4996;48.746;9.174;2023-02-11T15:07:43;9.50;99.90
9915;DHT22;4996;48.746;9.174;2023-02-11T15:10:16;9.70;99.90
9915;DHT22;4996;48.746;9.174;2023-02-11T15:12:44;9.80;99.90
9915;DHT22;4996;48.746;9.174;2023-02-11T15:15:14;9.50;99.90
9915;DHT22;4996;48.746;9.174;2023-02-11T15:17:40;9.50;99.90
9915;DHT22;4996;48.746;9.174;2023-02-11T15:20:17;9.60;99.90
9915;DHT22;4996;48.746;9.174;2023-02-11T15:22:45;9.90;99.90
9915;DHT22;4996;48.746;9.174;2023-02-11T15:25:14;9.50;99.90
9915;DHT22;4996;48.746;9.174;2023-02-11T15:27:43;9.40;99.90
9915;DHT22;4996;48.746;9.174;2023-02-11T15:30:35;9.20;99.90
9915;DHT22;4996;48.746;9.174;2023-02-11T15:33:02;9.00;99.90
9915;DHT22;4996;48.746;9.174;2023-02-11T15:35:36;8.90;99.90
9915;DHT22;4996;48.746;9.174;2023-02-11T15:38:03;8.90;99.90
9915;DHT22;4996;48.746;9.174;2023-02-11T15:40:37;9.00;99.90
9915;DHT22;4996;48.746;9.174;2023-02-11T15:43:06;8.70;99.90
9915;DHT22;4996;48.746;9.174;2023-02-11T15:45:58;8.80;99.90
9915;DHT22;4996;48.746;9.174;2023-02-11T15:48:43;8.70;99.90
9915;DHT22;4996;48.746;9.174;2023-02-11T15:51:21;8.50;99.90
9915;DHT22;4996;48.746;9.174;2023-02-11T15:53:54;8.40;99.90
9915;DHT22;4996;48.746;9.174;2023-02-11T15:56:39;8.30;99.90
9915;DHT22;4996;48.746;9.174;2023-02-11T15:59:15;8.10;99.90
9915;DHT22;4996;48.746;9.174;2023-02-11T16:01:43;7.80;99.90
9915;DHT22;4996;48.746;9.174;2023-02-11T16:04:21;7.80;99.90
9915;DHT22;4996;48.746;9.174;2023-02-11T16:06:48;7.80;99.90
9915;DHT22;4996;48.746;9.174;2023-02-11T16:14:22;7.50;99.90
9915;DHT22;4996;48.746;9.174;2023-02-11T16:16:53;7.40;99.90
9915;DHT22;4996;48.746;9.174;2023-02-11T16:19:21;7.40;99.90
9915;DHT22;4996;48.746;9.174;2023-02-11T16:21:48;7.60;99.90
9915;DHT22;4996;48.746;9.174;2023-02-11T16:24:24;7.50;99.90
9915;DHT22;4996;48.746;9.174;2023-02-11T16:26:54;7.60;99.90
9915;DHT22;4996;48.746;9.174;2023-02-11T16:29:25;7.50;99.90
9915;DHT22;4996;48.746;9.174;2023-02-11T16:31:53;7.50;99.90
9915;DHT22;4996;48.746;9.174;2023-02-11T16:34:24;7.50;99.90
9915;DHT22;4996;48.746;9.174;2023-02-11T16:36:50;7.60;99.90
9915;DHT22;4996;48.746;9.174;2023-02-11T16:39:17;7.70;99.90
9915;DHT22;4996;48.746;9.174;2023-02-11T16:41:43;7.60;99.90
9915;DHT22;4996;48.746;9.174;2023-02-11T16:44:09;7.60;99.90
9915;DHT22;4996;48.746;9.174;2023-02-11T16:46:35;7.50;99.90
9915;DHT22;4996;48.746;9.174;2023-02-11T16:49:20;7.50;99.90
9915;DHT22;4996;48.746;9.174;2023-02-11T16:51:52;7.70;99.90
9915;DHT22;4996;48.746;9.174;2023-02-11T16:54:18;7.60;99.90
9915;DHT22;4996;48.746;9.174;2023-02-11T16:56:44;7.50;99.90
9915;DHT22;4996;48.746;9.174;2023-02-11T16:59:10;7.50;99.90
9915;DHT22;4996;48.746;9.174;2023-02-11T17:01:37;7.50;99.90
9915;DHT22;4996;48.746;9.174;2023-02-11T17:04:03;7.60;99.90
9915;DHT22;4996;48.746;9.174;2023-02-11T17:06:29;7.90;99.90
9915;DHT22;4996;48.746;9.174;2023-02-11T17:08:55;7.60;99.90
9915;DHT22;4996;48.746;9.174;2023-02-11T17:11:20;7.70;99.90
9915;DHT22;4996;48.746;9.174;2023-02-11T17:13:46;7.70;99.90
9915;DHT22;4996;48.746;9.174;2023-02-11T17:16:18;7.90;99.90
9915;DHT22;4996;48.746;9.174;2023-02-11T17:18:44;7.90;99.90
9915;DHT22;4996;48.746;9.174;2023-02-11T17:21:10;7.90;99.90
9915;DHT22;4996;48.746;9.174;2023-02-11T17:23:35;7.90;99.90
9915;DHT22;4996;48.746;9.174;2023-02-11T17:28:37;7.80;99.90
9915;DHT22;4996;48.746;9.174;2023-02-11T17:31:06;7.80;99.90
9915;DHT22;4996;48.746;9.174;2023-02-11T17:33:33;7.80;99.90
9915;DHT22;4996;48.746;9.174;2023-02-11T17:35:58;7.90;99.90
9915;DHT22;4996;48.746;9.174;2023-02-11T17:38:24;7.80;99.90
9915;DHT22;4996;48.746;9.174;2023-02-11T17:40:57;7.70;99.90
9915;DHT22;4996;48.746;9.174;2023-02-11T17:43:26;7.80;99.90
9915;DHT22;4996;48.746;9.174;2023-02-11T17:45:51;7.90;99.90
9915;DHT22;4996;48.746;9.174;2023-02-11T17:48:17;7.90;99.90
9915;DHT22;4996;48.746;9.174;2023-02-11T17:50:42;8.00;99.90
9915;DHT22;4996;48.746;9.174;2023-02-11T17:53:08;8.00;99.90
9915;DHT22;4996;48.746;9.174;2023-02-11T17:55:34;8.00;99.90
9915;DHT22;4996;48.746;9.174;2023-02-11T17:58:00;8.00;99.90
9915;DHT22;4996;48.746;9.174;2023-02-11T18:00:26;8.00;99.90
9915;DHT22;4996;48.746;9.174;2023-02-11T18:02:53;8.10;99.90
9915;DHT22;4996;48.746;9.174;2023-02-11T18:05:18;8.10;99.90
9915;DHT22;4996;48.746;9.174;2023-02-11T18:07:44;8.20;99.90
9915;DHT22;4996;48.746;9.174;2023-02-11T18:10:10;8.20;99.90
9915;DHT22;4996;48.746;9.174;2023-02-11T18:12:35;8.20;99.90
9915;DHT22;4996;48.746;9.174;2023-02-11T18:15:01;8.20;99.90
9915;DHT22;4996;48.746;9.174;2023-02-11T18:17:27;8.20;99.90
9915;DHT22;4996;48.746;9.174;2023-02-11T18:19:56;8.20;99.90
9915;DHT22;4996;48.746;9.174;2023-02-11T18:22:22;8.20;99.90
9915;DHT22;4996;48.746;9.174;2023-02-11T18:24:52;8.10;99.90
9915;DHT22;4996;48.746;9.174;2023-02-11T18:27:20;8.20;99.90
9915;DHT22;4996;48.746;9.174;2023-02-11T18:29:45;8.30;99.90
9915;DHT22;4996;48.746;9.174;2023-02-11T18:32:11;8.30;99.90
9915;DHT22;4996;48.746;9.174;2023-02-11T18:34:39;8.30;99.90
9915;DHT22;4996;48.746;9.174;2023-02-11T18:37:05;8.30;99.90
9915;DHT22;4996;48.746;9.174;2023-02-11T18:39:30;8.30;99.90
9915;DHT22;4996;48.746;9.174;2023-02-11T18:41:56;8.30;99.90
9915;DHT22;4996;48.746;9.174;2023-02-11T18:44:24;8.30;99.90
9915;DHT22;4996;48.746;9.174;2023-02-11T18:46:51;8.30;99.90
9915;DHT22;4996;48.746;9.174;2023-02-11T18:49:17;8.40;99.90
9915;DHT22;4996;48.746;9.174;2023-02-11T18:51:42;8.40;99.90
9915;DHT22;4996;48.746;9.174;2023-02-11T18:54:08;8.40;99.90
9915;DHT22;4996;48.746;9.174;2023-02-11T18:56:34;8.50;99.90
9915;DHT22;4996;48.746;9.174;2023-02-11T18:58:59;8.50;99.90
9915;DHT22;4996;48.746;9.174;2023-02-11T19:01:27;8.40;99.90
9915;DHT22;4996;48.746;9.174;2023-02-11T19:03:55;8.40;99.90
9915;DHT22;4996;48.746;9.174;2023-02-11T19:06:25;8.40;99.90